RJKB(METAR)
07/27 18:00
RJKB 270900Z 10014KT 9999 FEW010 SCT015 BKN025 28/26 Q0998 RMK
A2948=
戻る
トップページへ戻る
IMOC Co,.Ltd.